sensor_id;sensor_type;location;lat;lon;timestamp;P1;durP1;ratioP1;P2;durP2;ratioP2
71667;SDS011;59504;54.806;9.640;2022-08-19T00:01:07;14.70;;;5.20;;
71667;SDS011;59504;54.806;9.640;2022-08-19T00:03:08;12.23;;;4.82;;
71667;SDS011;59504;54.806;9.640;2022-08-19T00:05:10;17.73;;;5.03;;
71667;SDS011;59504;54.806;9.640;2022-08-19T00:07:12;25.17;;;5.90;;
71667;SDS011;59504;54.806;9.640;2022-08-19T00:09:14;21.95;;;6.32;;
71667;SDS011;59504;54.806;9.640;2022-08-19T00:11:17;17.85;;;6.07;;
71667;SDS011;59504;54.806;9.640;2022-08-19T00:13:18;21.00;;;5.22;;
71667;SDS011;59504;54.806;9.640;2022-08-19T00:15:20;16.63;;;5.55;;
71667;SDS011;59504;54.806;9.640;2022-08-19T00:17:21;17.45;;;5.32;;
71667;SDS011;59504;54.806;9.640;2022-08-19T00:19:23;19.65;;;5.85;;
71667;SDS011;59504;54.806;9.640;2022-08-19T00:21:24;16.73;;;5.88;;
71667;SDS011;59504;54.806;9.640;2022-08-19T00:23:27;18.65;;;5.47;;
71667;SDS011;59504;54.806;9.640;2022-08-19T00:25:28;18.90;;;5.53;;
71667;SDS011;59504;54.806;9.640;2022-08-19T00:27:28;19.00;;;5.90;;
71667;SDS011;59504;54.806;9.640;2022-08-19T00:29:29;27.77;;;6.60;;
71667;SDS011;59504;54.806;9.640;2022-08-19T00:31:31;12.55;;;5.05;;
71667;SDS011;59504;54.806;9.640;2022-08-19T00:33:32;19.83;;;5.60;;
71667;SDS011;59504;54.806;9.640;2022-08-19T00:35:33;17.08;;;6.05;;
71667;SDS011;59504;54.806;9.640;2022-08-19T00:37:34;23.33;;;7.05;;
71667;SDS011;59504;54.806;9.640;2022-08-19T00:39:35;16.70;;;6.10;;
71667;SDS011;59504;54.806;9.640;2022-08-19T00:41:36;23.73;;;6.20;;
71667;SDS011;59504;54.806;9.640;2022-08-19T00:43:37;18.67;;;6.05;;
71667;SDS011;59504;54.806;9.640;2022-08-19T00:45:39;19.77;;;5.75;;
71667;SDS011;59504;54.806;9.640;2022-08-19T00:47:42;15.20;;;5.85;;
71667;SDS011;59504;54.806;9.640;2022-08-19T00:49:45;19.33;;;5.95;;
71667;SDS011;59504;54.806;9.640;2022-08-19T00:51:54;25.02;;;6.72;;
71667;SDS011;59504;54.806;9.640;2022-08-19T00:54:00;17.75;;;6.38;;
71667;SDS011;59504;54.806;9.640;2022-08-19T00:56:03;22.98;;;6.30;;
71667;SDS011;59504;54.806;9.640;2022-08-19T01:00:09;24.35;;;6.85;;
71667;SDS011;59504;54.806;9.640;2022-08-19T01:02:14;16.52;;;5.88;;
71667;SDS011;59504;54.806;9.640;2022-08-19T01:04:16;19.00;;;6.95;;
71667;SDS011;59504;54.806;9.640;2022-08-19T01:06:16;25.35;;;6.57;;
71667;SDS011;59504;54.806;9.640;2022-08-19T01:08:18;20.63;;;7.28;;
71667;SDS011;59504;54.806;9.640;2022-08-19T01:10:21;24.35;;;7.57;;
71667;SDS011;59504;54.806;9.640;2022-08-19T01:12:27;17.40;;;7.07;;
71667;SDS011;59504;54.806;9.640;2022-08-19T01:14:28;20.50;;;7.28;;
71667;SDS011;59504;54.806;9.640;2022-08-19T01:16:29;19.08;;;7.30;;
71667;SDS011;59504;54.806;9.640;2022-08-19T01:18:32;20.13;;;6.43;;
71667;SDS011;59504;54.806;9.640;2022-08-19T01:20:39;16.45;;;6.22;;
71667;SDS011;59504;54.806;9.640;2022-08-19T01:24:56;18.48;;;6.90;;
71667;SDS011;59504;54.806;9.640;2022-08-19T01:26:57;14.35;;;6.50;;
71667;SDS011;59504;54.806;9.640;2022-08-19T01:28:58;21.40;;;6.55;;
71667;SDS011;59504;54.806;9.640;2022-08-19T01:31:00;19.35;;;6.15;;
71667;SDS011;59504;54.806;9.640;2022-08-19T01:33:02;23.67;;;6.30;;
71667;SDS011;59504;54.806;9.640;2022-08-19T01:35:06;16.23;;;6.10;;
71667;SDS011;59504;54.806;9.640;2022-08-19T01:37:10;22.80;;;6.70;;
71667;SDS011;59504;54.806;9.640;2022-08-19T01:39:13;17.58;;;6.55;;
71667;SDS011;59504;54.806;9.640;2022-08-19T01:41:17;17.58;;;6.22;;
71667;SDS011;59504;54.806;9.640;2022-08-19T01:43:18;20.88;;;6.38;;
71667;SDS011;59504;54.806;9.640;2022-08-19T01:45:19;15.63;;;6.13;;
71667;SDS011;59504;54.806;9.640;2022-08-19T01:47:22;18.83;;;6.13;;
71667;SDS011;59504;54.806;9.640;2022-08-19T01:49:23;16.63;;;5.90;;
71667;SDS011;59504;54.806;9.640;2022-08-19T01:51:26;19.55;;;6.60;;
71667;SDS011;59504;54.806;9.640;2022-08-19T01:53:27;18.85;;;6.80;;
71667;SDS011;59504;54.806;9.640;2022-08-19T01:55:28;18.98;;;6.38;;
71667;SDS011;59504;54.806;9.640;2022-08-19T01:57:29;16.10;;;6.43;;
71667;SDS011;59504;54.806;9.640;2022-08-19T01:59:30;18.02;;;6.93;;
71667;SDS011;59504;54.806;9.640;2022-08-19T02:01:32;18.23;;;6.83;;
71667;SDS011;59504;54.806;9.640;2022-08-19T02:03:34;16.90;;;6.03;;
71667;SDS011;59504;54.806;9.640;2022-08-19T02:05:35;20.40;;;6.50;;
71667;SDS011;59504;54.806;9.640;2022-08-19T02:07:37;16.95;;;6.32;;
71667;SDS011;59504;54.806;9.640;2022-08-19T02:09:39;25.08;;;6.70;;
71667;SDS011;59504;54.806;9.640;2022-08-19T02:11:39;18.00;;;7.13;;
71667;SDS011;59504;54.806;9.640;2022-08-19T02:13:41;23.50;;;7.55;;
71667;SDS011;59504;54.806;9.640;2022-08-19T02:15:42;17.95;;;5.75;;
71667;SDS011;59504;54.806;9.640;2022-08-19T02:17:43;20.92;;;7.28;;
71667;SDS011;59504;54.806;9.640;2022-08-19T02:19:44;18.63;;;7.30;;
71667;SDS011;59504;54.806;9.640;2022-08-19T02:21:44;22.00;;;7.65;;
71667;SDS011;59504;54.806;9.640;2022-08-19T02:23:45;15.95;;;6.90;;
71667;SDS011;59504;54.806;9.640;2022-08-19T02:25:47;17.05;;;7.25;;
71667;SDS011;59504;54.806;9.640;2022-08-19T02:27:48;21.08;;;6.72;;
71667;SDS011;59504;54.806;9.640;2022-08-19T02:29:49;19.88;;;6.82;;
71667;SDS011;59504;54.806;9.640;2022-08-19T02:31:50;24.55;;;6.85;;
71667;SDS011;59504;54.806;9.640;2022-08-19T02:33:53;19.05;;;7.13;;
71667;SDS011;59504;54.806;9.640;2022-08-19T02:35:55;22.23;;;6.88;;
71667;SDS011;59504;54.806;9.640;2022-08-19T02:37:56;18.88;;;7.28;;
71667;SDS011;59504;54.806;9.640;2022-08-19T02:40:15;19.48;;;7.20;;
71667;SDS011;59504;54.806;9.640;2022-08-19T02:42:17;20.67;;;7.18;;
71667;SDS011;59504;54.806;9.640;2022-08-19T02:44:18;19.65;;;7.55;;
71667;SDS011;59504;54.806;9.640;2022-08-19T02:46:21;19.52;;;7.18;;
71667;SDS011;59504;54.806;9.640;2022-08-19T02:48:24;25.05;;;6.60;;
71667;SDS011;59504;54.806;9.640;2022-08-19T02:50:25;25.10;;;7.63;;
71667;SDS011;59504;54.806;9.640;2022-08-19T02:52:26;21.58;;;6.70;;
71667;SDS011;59504;54.806;9.640;2022-08-19T02:54:27;18.08;;;7.32;;
71667;SDS011;59504;54.806;9.640;2022-08-19T02:56:28;20.00;;;7.47;;
71667;SDS011;59504;54.806;9.640;2022-08-19T02:58:30;26.33;;;8.48;;
71667;SDS011;59504;54.806;9.640;2022-08-19T03:00:31;21.77;;;6.90;;
71667;SDS011;59504;54.806;9.640;2022-08-19T03:02:32;18.65;;;6.82;;
71667;SDS011;59504;54.806;9.640;2022-08-19T03:04:33;19.40;;;7.47;;
71667;SDS011;59504;54.806;9.640;2022-08-19T03:06:35;17.60;;;7.50;;
71667;SDS011;59504;54.806;9.640;2022-08-19T03:08:37;21.42;;;8.10;;
71667;SDS011;59504;54.806;9.640;2022-08-19T03:10:42;20.73;;;7.63;;
71667;SDS011;59504;54.806;9.640;2022-08-19T03:12:46;21.77;;;7.32;;
71667;SDS011;59504;54.806;9.640;2022-08-19T03:14:47;18.20;;;7.22;;
71667;SDS011;59504;54.806;9.640;2022-08-19T03:16:49;23.58;;;8.52;;
71667;SDS011;59504;54.806;9.640;2022-08-19T03:18:51;16.15;;;7.30;;
71667;SDS011;59504;54.806;9.640;2022-08-19T03:20:53;15.73;;;7.20;;
71667;SDS011;59504;54.806;9.640;2022-08-19T03:22:54;18.73;;;7.50;;
71667;SDS011;59504;54.806;9.640;2022-08-19T03:24:55;22.80;;;7.40;;
71667;SDS011;59504;54.806;9.640;2022-08-19T03:26:56;24.58;;;8.15;;
71667;SDS011;59504;54.806;9.640;2022-08-19T03:28:57;21.95;;;8.32;;
71667;SDS011;59504;54.806;9.640;2022-08-19T03:31:06;31.33;;;8.82;;
71667;SDS011;59504;54.806;9.640;2022-08-19T03:33:10;21.70;;;7.63;;
71667;SDS011;59504;54.806;9.640;2022-08-19T03:35:14;22.00;;;8.32;;
71667;SDS011;59504;54.806;9.640;2022-08-19T03:37:15;20.58;;;8.18;;
71667;SDS011;59504;54.806;9.640;2022-08-19T03:39:15;24.77;;;7.55;;
71667;SDS011;59504;54.806;9.640;2022-08-19T03:41:27;21.75;;;8.50;;
71667;SDS011;59504;54.806;9.640;2022-08-19T03:43:34;20.77;;;8.68;;
71667;SDS011;59504;54.806;9.640;2022-08-19T03:45:36;20.65;;;8.55;;
71667;SDS011;59504;54.806;9.640;2022-08-19T03:47:37;23.60;;;8.82;;
71667;SDS011;59504;54.806;9.640;2022-08-19T03:49:37;21.23;;;8.10;;
71667;SDS011;59504;54.806;9.640;2022-08-19T03:51:38;28.95;;;9.25;;
71667;SDS011;59504;54.806;9.640;2022-08-19T03:53:39;25.02;;;10.25;;
71667;SDS011;59504;54.806;9.640;2022-08-19T03:55:40;19.38;;;8.50;;
71667;SDS011;59504;54.806;9.640;2022-08-19T03:57:41;20.45;;;8.93;;
71667;SDS011;59504;54.806;9.640;2022-08-19T03:59:41;25.52;;;9.30;;
71667;SDS011;59504;54.806;9.640;2022-08-19T04:01:42;19.50;;;8.70;;
71667;SDS011;59504;54.806;9.640;2022-08-19T04:03:44;20.17;;;9.20;;
71667;SDS011;59504;54.806;9.640;2022-08-19T04:05:46;23.67;;;9.95;;
71667;SDS011;59504;54.806;9.640;2022-08-19T04:07:47;19.42;;;9.15;;
71667;SDS011;59504;54.806;9.640;2022-08-19T04:09:48;29.88;;;10.45;;
71667;SDS011;59504;54.806;9.640;2022-08-19T04:11:50;30.23;;;10.60;;
71667;SDS011;59504;54.806;9.640;2022-08-19T04:14:17;28.33;;;9.82;;
71667;SDS011;59504;54.806;9.640;2022-08-19T04:19:01;25.33;;;9.68;;
71667;SDS011;59504;54.806;9.640;2022-08-19T04:21:03;22.27;;;10.47;;
71667;SDS011;59504;54.806;9.640;2022-08-19T04:23:04;21.98;;;10.02;;
71667;SDS011;59504;54.806;9.640;2022-08-19T04:25:05;22.85;;;10.98;;
71667;SDS011;59504;54.806;9.640;2022-08-19T04:27:06;28.52;;;10.38;;
71667;SDS011;59504;54.806;9.640;2022-08-19T04:29:10;24.40;;;10.10;;
71667;SDS011;59504;54.806;9.640;2022-08-19T04:31:15;24.80;;;10.40;;
71667;SDS011;59504;54.806;9.640;2022-08-19T04:33:23;24.00;;;9.40;;
71667;SDS011;59504;54.806;9.640;2022-08-19T04:35:25;25.20;;;10.23;;
71667;SDS011;59504;54.806;9.640;2022-08-19T04:37:26;22.50;;;10.30;;
71667;SDS011;59504;54.806;9.640;2022-08-19T04:39:28;24.50;;;9.68;;
71667;SDS011;59504;54.806;9.640;2022-08-19T04:41:49;19.75;;;9.48;;
71667;SDS011;59504;54.806;9.640;2022-08-19T04:44:09;20.42;;;9.60;;
71667;SDS011;59504;54.806;9.640;2022-08-19T04:46:10;24.25;;;10.13;;
71667;SDS011;59504;54.806;9.640;2022-08-19T04:48:12;36.95;;;10.38;;
71667;SDS011;59504;54.806;9.640;2022-08-19T04:50:13;28.52;;;10.43;;
71667;SDS011;59504;54.806;9.640;2022-08-19T04:52:14;28.63;;;10.88;;
71667;SDS011;59504;54.806;9.640;2022-08-19T04:54:16;27.50;;;10.38;;
71667;SDS011;59504;54.806;9.640;2022-08-19T04:56:19;26.95;;;9.60;;
71667;SDS011;59504;54.806;9.640;2022-08-19T04:58:23;25.10;;;10.40;;
71667;SDS011;59504;54.806;9.640;2022-08-19T05:00:25;27.77;;;9.88;;
71667;SDS011;59504;54.806;9.640;2022-08-19T05:02:26;25.58;;;10.25;;
71667;SDS011;59504;54.806;9.640;2022-08-19T05:04:26;28.48;;;10.82;;
71667;SDS011;59504;54.806;9.640;2022-08-19T05:06:33;19.67;;;9.23;;
71667;SDS011;59504;54.806;9.640;2022-08-19T05:08:35;27.50;;;10.57;;
71667;SDS011;59504;54.806;9.640;2022-08-19T05:10:37;29.08;;;10.57;;
71667;SDS011;59504;54.806;9.640;2022-08-19T05:12:39;29.45;;;10.18;;
71667;SDS011;59504;54.806;9.640;2022-08-19T05:14:40;27.30;;;10.07;;
71667;SDS011;59504;54.806;9.640;2022-08-19T05:16:41;29.50;;;9.43;;
71667;SDS011;59504;54.806;9.640;2022-08-19T05:18:56;20.10;;;9.68;;
71667;SDS011;59504;54.806;9.640;2022-08-19T05:21:26;35.17;;;11.07;;
71667;SDS011;59504;54.806;9.640;2022-08-19T05:24:35;24.15;;;9.70;;
71667;SDS011;59504;54.806;9.640;2022-08-19T05:26:44;33.13;;;11.88;;
71667;SDS011;59504;54.806;9.640;2022-08-19T05:29:37;32.45;;;10.73;;
71667;SDS011;59504;54.806;9.640;2022-08-19T05:35:04;22.45;;;10.60;;
71667;SDS011;59504;54.806;9.640;2022-08-19T05:37:15;24.80;;;10.82;;
71667;SDS011;59504;54.806;9.640;2022-08-19T05:39:59;29.00;;;11.20;;
71667;SDS011;59504;54.806;9.640;2022-08-19T05:42:01;32.03;;;11.40;;
71667;SDS011;59504;54.806;9.640;2022-08-19T05:44:14;21.77;;;10.55;;
71667;SDS011;59504;54.806;9.640;2022-08-19T05:46:20;26.95;;;11.88;;
71667;SDS011;59504;54.806;9.640;2022-08-19T05:51:49;29.58;;;11.75;;
71667;SDS011;59504;54.806;9.640;2022-08-19T05:54:01;36.63;;;10.63;;
71667;SDS011;59504;54.806;9.640;2022-08-19T05:56:05;39.17;;;11.95;;
71667;SDS011;59504;54.806;9.640;2022-08-19T05:58:16;25.48;;;11.38;;
71667;SDS011;59504;54.806;9.640;2022-08-19T06:00:17;31.90;;;11.85;;
71667;SDS011;59504;54.806;9.640;2022-08-19T06:02:20;32.42;;;11.43;;
71667;SDS011;59504;54.806;9.640;2022-08-19T06:04:27;33.30;;;11.65;;
71667;SDS011;59504;54.806;9.640;2022-08-19T06:06:32;38.92;;;11.52;;
71667;SDS011;59504;54.806;9.640;2022-08-19T06:08:34;25.10;;;10.80;;
71667;SDS011;59504;54.806;9.640;2022-08-19T06:10:49;23.70;;;11.15;;
71667;SDS011;59504;54.806;9.640;2022-08-19T06:19:23;50.00;;;12.13;;
71667;SDS011;59504;54.806;9.640;2022-08-19T06:40:00;36.75;;;13.77;;
71667;SDS011;59504;54.806;9.640;2022-08-19T06:45:45;38.30;;;13.20;;
71667;SDS011;59504;54.806;9.640;2022-08-19T06:47:46;32.10;;;12.93;;
71667;SDS011;59504;54.806;9.640;2022-08-19T06:49:48;44.97;;;14.50;;
71667;SDS011;59504;54.806;9.640;2022-08-19T06:51:49;30.60;;;14.07;;
71667;SDS011;59504;54.806;9.640;2022-08-19T06:53:52;44.00;;;16.20;;
71667;SDS011;59504;54.806;9.640;2022-08-19T06:58:03;38.42;;;16.65;;
71667;SDS011;59504;54.806;9.640;2022-08-19T07:00:05;39.55;;;17.55;;
71667;SDS011;59504;54.806;9.640;2022-08-19T07:02:10;37.38;;;16.48;;
71667;SDS011;59504;54.806;9.640;2022-08-19T07:04:11;37.15;;;17.15;;
71667;SDS011;59504;54.806;9.640;2022-08-19T07:06:14;37.30;;;16.63;;
71667;SDS011;59504;54.806;9.640;2022-08-19T07:08:17;41.90;;;16.88;;
71667;SDS011;59504;54.806;9.640;2022-08-19T07:10:18;42.65;;;16.55;;
71667;SDS011;59504;54.806;9.640;2022-08-19T07:12:19;43.20;;;16.58;;
71667;SDS011;59504;54.806;9.640;2022-08-19T07:14:21;37.50;;;15.77;;
71667;SDS011;59504;54.806;9.640;2022-08-19T07:16:25;33.70;;;15.55;;
71667;SDS011;59504;54.806;9.640;2022-08-19T07:18:26;37.53;;;16.15;;
71667;SDS011;59504;54.806;9.640;2022-08-19T07:20:27;33.70;;;15.70;;
71667;SDS011;59504;54.806;9.640;2022-08-19T07:22:28;41.83;;;17.50;;
71667;SDS011;59504;54.806;9.640;2022-08-19T07:24:49;35.63;;;16.55;;
71667;SDS011;59504;54.806;9.640;2022-08-19T07:27:10;34.38;;;17.30;;
71667;SDS011;59504;54.806;9.640;2022-08-19T07:29:34;47.03;;;18.05;;
71667;SDS011;59504;54.806;9.640;2022-08-19T07:31:56;45.53;;;20.25;;
71667;SDS011;59504;54.806;9.640;2022-08-19T07:34:18;40.55;;;17.73;;
71667;SDS011;59504;54.806;9.640;2022-08-19T07:36:20;36.97;;;16.45;;
71667;SDS011;59504;54.806;9.640;2022-08-19T07:38:22;44.95;;;18.13;;
71667;SDS011;59504;54.806;9.640;2022-08-19T07:40:23;42.53;;;17.70;;
71667;SDS011;59504;54.806;9.640;2022-08-19T07:42:24;43.63;;;17.27;;
71667;SDS011;59504;54.806;9.640;2022-08-19T07:44:25;39.40;;;17.50;;
71667;SDS011;59504;54.806;9.640;2022-08-19T07:46:26;41.05;;;17.83;;
71667;SDS011;59504;54.806;9.640;2022-08-19T07:48:28;43.45;;;17.60;;
71667;SDS011;59504;54.806;9.640;2022-08-19T07:50:29;45.35;;;16.27;;
71667;SDS011;59504;54.806;9.640;2022-08-19T07:52:30;39.40;;;17.00;;
71667;SDS011;59504;54.806;9.640;2022-08-19T07:54:32;35.08;;;15.80;;
71667;SDS011;59504;54.806;9.640;2022-08-19T07:56:35;45.55;;;17.67;;
71667;SDS011;59504;54.806;9.640;2022-08-19T07:58:38;36.08;;;16.30;;
71667;SDS011;59504;54.806;9.640;2022-08-19T08:00:42;36.75;;;16.77;;
71667;SDS011;59504;54.806;9.640;2022-08-19T08:02:44;43.10;;;17.50;;
71667;SDS011;59504;54.806;9.640;2022-08-19T08:04:44;37.92;;;16.48;;
71667;SDS011;59504;54.806;9.640;2022-08-19T08:07:04;33.85;;;15.52;;
71667;SDS011;59504;54.806;9.640;2022-08-19T08:09:35;36.80;;;16.55;;
71667;SDS011;59504;54.806;9.640;2022-08-19T08:11:38;39.85;;;16.60;;
71667;SDS011;59504;54.806;9.640;2022-08-19T08:13:39;36.47;;;16.13;;
71667;SDS011;59504;54.806;9.640;2022-08-19T08:15:41;38.67;;;15.88;;
71667;SDS011;59504;54.806;9.640;2022-08-19T08:17:42;45.35;;;17.52;;
71667;SDS011;59504;54.806;9.640;2022-08-19T08:19:43;38.75;;;16.35;;
71667;SDS011;59504;54.806;9.640;2022-08-19T08:21:45;38.80;;;16.35;;
71667;SDS011;59504;54.806;9.640;2022-08-19T08:23:46;40.35;;;16.92;;
71667;SDS011;59504;54.806;9.640;2022-08-19T08:25:47;37.92;;;15.70;;
71667;SDS011;59504;54.806;9.640;2022-08-19T08:27:49;42.13;;;16.40;;
71667;SDS011;59504;54.806;9.640;2022-08-19T08:29:50;43.33;;;16.30;;
71667;SDS011;59504;54.806;9.640;2022-08-19T08:31:51;40.72;;;16.60;;
71667;SDS011;59504;54.806;9.640;2022-08-19T08:33:52;35.22;;;14.23;;
71667;SDS011;59504;54.806;9.640;2022-08-19T08:35:52;31.20;;;14.40;;
71667;SDS011;59504;54.806;9.640;2022-08-19T08:37:54;31.02;;;14.07;;
71667;SDS011;59504;54.806;9.640;2022-08-19T08:39:57;31.08;;;14.73;;
71667;SDS011;59504;54.806;9.640;2022-08-19T08:44:18;33.15;;;14.65;;
71667;SDS011;59504;54.806;9.640;2022-08-19T08:48:46;32.33;;;13.50;;
71667;SDS011;59504;54.806;9.640;2022-08-19T08:50:54;29.50;;;13.00;;
71667;SDS011;59504;54.806;9.640;2022-08-19T08:52:56;34.17;;;14.63;;
71667;SDS011;59504;54.806;9.640;2022-08-19T08:54:59;35.00;;;14.52;;
71667;SDS011;59504;54.806;9.640;2022-08-19T08:57:04;28.65;;;13.35;;
71667;SDS011;59504;54.806;9.640;2022-08-19T08:59:33;40.08;;;15.60;;
71667;SDS011;59504;54.806;9.640;2022-08-19T09:01:36;34.15;;;15.57;;
71667;SDS011;59504;54.806;9.640;2022-08-19T09:03:39;36.67;;;15.63;;
71667;SDS011;59504;54.806;9.640;2022-08-19T09:05:48;33.20;;;15.48;;
71667;SDS011;59504;54.806;9.640;2022-08-19T09:10:10;32.20;;;15.15;;
71667;SDS011;59504;54.806;9.640;2022-08-19T09:16:56;30.98;;;14.90;;
71667;SDS011;59504;54.806;9.640;2022-08-19T09:19:01;38.15;;;15.13;;
71667;SDS011;59504;54.806;9.640;2022-08-19T09:21:03;38.90;;;15.57;;
71667;SDS011;59504;54.806;9.640;2022-08-19T09:23:04;32.53;;;14.73;;
71667;SDS011;59504;54.806;9.640;2022-08-19T09:25:06;36.85;;;15.38;;
71667;SDS011;59504;54.806;9.640;2022-08-19T09:27:08;33.17;;;14.55;;
71667;SDS011;59504;54.806;9.640;2022-08-19T09:29:09;33.25;;;14.73;;
71667;SDS011;59504;54.806;9.640;2022-08-19T09:31:11;37.08;;;15.32;;
71667;SDS011;59504;54.806;9.640;2022-08-19T09:33:16;46.95;;;16.10;;
71667;SDS011;59504;54.806;9.640;2022-08-19T09:35:17;42.95;;;15.70;;
71667;SDS011;59504;54.806;9.640;2022-08-19T09:37:19;33.78;;;14.88;;
71667;SDS011;59504;54.806;9.640;2022-08-19T09:39:21;30.60;;;14.90;;
71667;SDS011;59504;54.806;9.640;2022-08-19T09:41:23;30.50;;;14.30;;
71667;SDS011;59504;54.806;9.640;2022-08-19T09:43:25;31.33;;;14.02;;
71667;SDS011;59504;54.806;9.640;2022-08-19T09:45:28;38.17;;;15.77;;
71667;SDS011;59504;54.806;9.640;2022-08-19T09:47:29;33.88;;;14.88;;
71667;SDS011;59504;54.806;9.640;2022-08-19T09:49:30;29.40;;;14.27;;
71667;SDS011;59504;54.806;9.640;2022-08-19T09:51:31;36.30;;;15.98;;
71667;SDS011;59504;54.806;9.640;2022-08-19T09:53:32;39.33;;;16.42;;
71667;SDS011;59504;54.806;9.640;2022-08-19T09:55:33;41.50;;;16.60;;
71667;SDS011;59504;54.806;9.640;2022-08-19T09:57:34;38.88;;;15.35;;
71667;SDS011;59504;54.806;9.640;2022-08-19T09:59:36;35.00;;;15.02;;
71667;SDS011;59504;54.806;9.640;2022-08-19T10:01:36;36.05;;;16.45;;
71667;SDS011;59504;54.806;9.640;2022-08-19T10:03:37;30.30;;;15.38;;
71667;SDS011;59504;54.806;9.640;2022-08-19T10:05:38;30.88;;;14.07;;
71667;SDS011;59504;54.806;9.640;2022-08-19T10:07:48;33.15;;;14.57;;
71667;SDS011;59504;54.806;9.640;2022-08-19T10:09:48;25.50;;;13.48;;
71667;SDS011;59504;54.806;9.640;2022-08-19T10:11:49;35.35;;;15.02;;
71667;SDS011;59504;54.806;9.640;2022-08-19T10:13:50;35.10;;;14.82;;
71667;SDS011;59504;54.806;9.640;2022-08-19T10:15:55;31.13;;;14.32;;
71667;SDS011;59504;54.806;9.640;2022-08-19T10:18:02;31.35;;;13.90;;
71667;SDS011;59504;54.806;9.640;2022-08-19T10:20:03;32.88;;;14.65;;
71667;SDS011;59504;54.806;9.640;2022-08-19T10:22:05;25.38;;;12.85;;
71667;SDS011;59504;54.806;9.640;2022-08-19T10:24:07;27.67;;;13.20;;
71667;SDS011;59504;54.806;9.640;2022-08-19T10:26:08;27.00;;;12.90;;
71667;SDS011;59504;54.806;9.640;2022-08-19T10:28:09;28.08;;;12.38;;
71667;SDS011;59504;54.806;9.640;2022-08-19T10:30:12;30.33;;;12.65;;
71667;SDS011;59504;54.806;9.640;2022-08-19T10:32:13;25.48;;;12.70;;
71667;SDS011;59504;54.806;9.640;2022-08-19T10:34:14;22.55;;;11.30;;
71667;SDS011;59504;54.806;9.640;2022-08-19T10:36:18;19.83;;;10.88;;
71667;SDS011;59504;54.806;9.640;2022-08-19T10:38:22;24.88;;;11.63;;
71667;SDS011;59504;54.806;9.640;2022-08-19T10:40:23;22.55;;;11.90;;
71667;SDS011;59504;54.806;9.640;2022-08-19T10:42:27;24.33;;;11.68;;
71667;SDS011;59504;54.806;9.640;2022-08-19T10:44:28;23.17;;;12.25;;
71667;SDS011;59504;54.806;9.640;2022-08-19T10:46:30;24.23;;;12.10;;
71667;SDS011;59504;54.806;9.640;2022-08-19T10:48:32;23.13;;;12.93;;
71667;SDS011;59504;54.806;9.640;2022-08-19T10:50:34;22.42;;;12.07;;
71667;SDS011;59504;54.806;9.640;2022-08-19T10:52:55;23.55;;;11.65;;
71667;SDS011;59504;54.806;9.640;2022-08-19T10:54:55;25.15;;;13.15;;
71667;SDS011;59504;54.806;9.640;2022-08-19T10:57:15;24.40;;;12.20;;
71667;SDS011;59504;54.806;9.640;2022-08-19T10:59:16;21.90;;;11.82;;
71667;SDS011;59504;54.806;9.640;2022-08-19T11:01:21;22.98;;;12.43;;
71667;SDS011;59504;54.806;9.640;2022-08-19T11:03:22;21.95;;;12.60;;
71667;SDS011;59504;54.806;9.640;2022-08-19T11:05:24;22.63;;;12.77;;
71667;SDS011;59504;54.806;9.640;2022-08-19T11:07:24;27.17;;;12.57;;
71667;SDS011;59504;54.806;9.640;2022-08-19T11:09:26;21.02;;;12.15;;
71667;SDS011;59504;54.806;9.640;2022-08-19T11:11:28;20.40;;;11.73;;
71667;SDS011;59504;54.806;9.640;2022-08-19T11:13:32;32.05;;;12.80;;
71667;SDS011;59504;54.806;9.640;2022-08-19T11:15:36;22.77;;;12.00;;
71667;SDS011;59504;54.806;9.640;2022-08-19T11:17:40;21.98;;;11.95;;
71667;SDS011;59504;54.806;9.640;2022-08-19T11:19:43;21.13;;;11.70;;
71667;SDS011;59504;54.806;9.640;2022-08-19T11:21:45;21.52;;;11.65;;
71667;SDS011;59504;54.806;9.640;2022-08-19T11:23:49;20.08;;;11.20;;
71667;SDS011;59504;54.806;9.640;2022-08-19T11:25:52;26.85;;;11.68;;
71667;SDS011;59504;54.806;9.640;2022-08-19T11:27:53;22.02;;;10.88;;
71667;SDS011;59504;54.806;9.640;2022-08-19T11:29:54;21.13;;;11.43;;
71667;SDS011;59504;54.806;9.640;2022-08-19T11:31:55;18.98;;;10.65;;
71667;SDS011;59504;54.806;9.640;2022-08-19T11:33:56;17.35;;;10.55;;
71667;SDS011;59504;54.806;9.640;2022-08-19T11:35:59;19.83;;;11.63;;
71667;SDS011;59504;54.806;9.640;2022-08-19T11:38:01;16.35;;;10.18;;
71667;SDS011;59504;54.806;9.640;2022-08-19T11:40:03;19.25;;;11.02;;
71667;SDS011;59504;54.806;9.640;2022-08-19T11:42:08;18.05;;;10.13;;
71667;SDS011;59504;54.806;9.640;2022-08-19T11:44:30;16.63;;;9.57;;
71667;SDS011;59504;54.806;9.640;2022-08-19T11:46:31;21.50;;;11.18;;
71667;SDS011;59504;54.806;9.640;2022-08-19T11:48:36;16.90;;;10.45;;
71667;SDS011;59504;54.806;9.640;2022-08-19T11:50:40;21.38;;;10.43;;
71667;SDS011;59504;54.806;9.640;2022-08-19T11:52:42;15.43;;;9.85;;
71667;SDS011;59504;54.806;9.640;2022-08-19T11:54:46;18.73;;;10.55;;
71667;SDS011;59504;54.806;9.640;2022-08-19T11:56:47;14.50;;;9.63;;
71667;SDS011;59504;54.806;9.640;2022-08-19T11:58:51;17.73;;;11.15;;
71667;SDS011;59504;54.806;9.640;2022-08-19T12:00:53;19.42;;;9.65;;
71667;SDS011;59504;54.806;9.640;2022-08-19T12:02:53;18.35;;;9.27;;
71667;SDS011;59504;54.806;9.640;2022-08-19T12:04:54;17.25;;;10.75;;
71667;SDS011;59504;54.806;9.640;2022-08-19T12:06:55;15.30;;;9.38;;
71667;SDS011;59504;54.806;9.640;2022-08-19T12:08:57;17.75;;;9.25;;
71667;SDS011;59504;54.806;9.640;2022-08-19T12:10:59;12.15;;;8.15;;
71667;SDS011;59504;54.806;9.640;2022-08-19T12:13:01;19.35;;;10.02;;
71667;SDS011;59504;54.806;9.640;2022-08-19T12:15:02;13.23;;;8.70;;
71667;SDS011;59504;54.806;9.640;2022-08-19T12:17:03;17.45;;;9.00;;
71667;SDS011;59504;54.806;9.640;2022-08-19T12:19:07;17.35;;;9.07;;
71667;SDS011;59504;54.806;9.640;2022-08-19T12:21:08;15.18;;;8.88;;
71667;SDS011;59504;54.806;9.640;2022-08-19T12:23:11;15.35;;;9.00;;
71667;SDS011;59504;54.806;9.640;2022-08-19T12:25:11;15.15;;;8.50;;
71667;SDS011;59504;54.806;9.640;2022-08-19T12:27:12;14.63;;;9.10;;
71667;SDS011;59504;54.806;9.640;2022-08-19T12:29:19;16.63;;;8.65;;
71667;SDS011;59504;54.806;9.640;2022-08-19T12:31:21;14.02;;;9.50;;
71667;SDS011;59504;54.806;9.640;2022-08-19T12:33:25;18.15;;;10.25;;
71667;SDS011;59504;54.806;9.640;2022-08-19T12:35:28;17.00;;;9.77;;
71667;SDS011;59504;54.806;9.640;2022-08-19T12:37:57;15.63;;;9.55;;
71667;SDS011;59504;54.806;9.640;2022-08-19T12:40:13;13.05;;;9.13;;
71667;SDS011;59504;54.806;9.640;2022-08-19T12:42:15;15.57;;;9.93;;
71667;SDS011;59504;54.806;9.640;2022-08-19T12:44:16;19.92;;;10.80;;
71667;SDS011;59504;54.806;9.640;2022-08-19T12:48:20;18.05;;;10.48;;
71667;SDS011;59504;54.806;9.640;2022-08-19T12:50:23;25.42;;;11.60;;
71667;SDS011;59504;54.806;9.640;2022-08-19T12:52:25;16.30;;;10.15;;
71667;SDS011;59504;54.806;9.640;2022-08-19T12:54:27;15.82;;;10.85;;
71667;SDS011;59504;54.806;9.640;2022-08-19T12:56:30;15.98;;;9.52;;
71667;SDS011;59504;54.806;9.640;2022-08-19T12:58:31;15.98;;;10.48;;
71667;SDS011;59504;54.806;9.640;2022-08-19T13:00:34;16.90;;;10.70;;
71667;SDS011;59504;54.806;9.640;2022-08-19T13:02:35;18.75;;;11.00;;
71667;SDS011;59504;54.806;9.640;2022-08-19T13:04:40;18.80;;;9.88;;
71667;SDS011;59504;54.806;9.640;2022-08-19T13:06:41;16.88;;;9.63;;
71667;SDS011;59504;54.806;9.640;2022-08-19T13:08:42;19.50;;;10.57;;